createdAt,value
2017-09-13T00:00:24.425Z,999.16
2017-09-13T00:00:50.566Z,999.18
2017-09-13T00:01:16.718Z,999.16
2017-09-13T00:01:42.856Z,999.15
2017-09-13T00:02:09.010Z,999.09
2017-09-13T00:02:35.152Z,999.04
2017-09-13T00:03:01.299Z,999.07
2017-09-13T00:03:27.444Z,999.05
2017-09-13T00:03:53.599Z,999.1
2017-09-13T00:04:19.757Z,999.09
2017-09-13T00:04:45.907Z,999.07
2017-09-13T00:05:12.056Z,998.99
2017-09-13T00:05:38.201Z,998.98
2017-09-13T00:06:04.349Z,998.97
2017-09-13T00:06:30.494Z,998.96
2017-09-13T00:06:56.642Z,998.95
2017-09-13T00:07:22.783Z,998.87
2017-09-13T00:07:48.934Z,998.92
2017-09-13T00:08:15.074Z,998.82
2017-09-13T00:08:41.229Z,998.85
2017-09-13T00:09:07.372Z,998.91
2017-09-13T00:09:33.519Z,998.81
2017-09-13T00:09:59.670Z,998.79
2017-09-13T00:10:25.812Z,998.81
2017-09-13T00:10:51.964Z,998.79
2017-09-13T00:11:18.105Z,998.74
2017-09-13T00:11:44.257Z,998.74
2017-09-13T00:12:10.408Z,998.67
2017-09-13T00:12:36.626Z,998.71
2017-09-13T00:13:02.793Z,998.7
2017-09-13T00:13:28.955Z,998.78
2017-09-13T00:13:55.108Z,998.74
2017-09-13T00:14:21.305Z,998.75
2017-09-13T00:14:47.462Z,998.72
2017-09-13T00:15:13.626Z,998.7
2017-09-13T00:15:39.773Z,998.72
2017-09-13T00:16:05.915Z,998.66
2017-09-13T00:16:32.067Z,998.66
2017-09-13T00:16:58.272Z,998.66
2017-09-13T00:17:24.415Z,998.65
2017-09-13T00:17:50.566Z,998.64
2017-09-13T00:18:16.712Z,998.67
2017-09-13T00:18:42.867Z,998.59
2017-09-13T00:19:09.102Z,998.59
2017-09-13T00:19:35.273Z,998.56
2017-09-13T00:20:01.421Z,998.55
2017-09-13T00:20:27.564Z,998.65
2017-09-13T00:20:53.733Z,998.69
2017-09-13T00:21:19.886Z,998.61
2017-09-13T00:21:46.029Z,998.61
2017-09-13T00:22:12.174Z,998.63
2017-09-13T00:22:38.323Z,998.64
2017-09-13T00:23:04.475Z,998.62
2017-09-13T00:23:30.614Z,998.57
2017-09-13T00:23:56.761Z,998.61
2017-09-13T00:24:22.908Z,998.53
2017-09-13T00:24:49.063Z,998.59
2017-09-13T00:25:15.337Z,998.56
2017-09-13T00:25:41.526Z,998.52
2017-09-13T00:26:07.673Z,998.53
2017-09-13T00:26:33.816Z,998.54
2017-09-13T00:26:59.963Z,998.51
2017-09-13T00:27:26.108Z,998.52
2017-09-13T00:27:52.261Z,998.42
2017-09-13T00:28:18.402Z,998.43
2017-09-13T00:28:44.548Z,998.47
2017-09-13T00:29:10.697Z,998.43
2017-09-13T00:29:36.873Z,998.46
2017-09-13T00:30:03.017Z,998.34
2017-09-13T00:30:29.165Z,998.35
2017-09-13T00:30:55.314Z,998.33
2017-09-13T00:31:21.479Z,998.38
2017-09-13T00:31:47.622Z,998.31
2017-09-13T00:32:13.768Z,998.3
2017-09-13T00:32:39.913Z,998.24
2017-09-13T00:33:06.065Z,998.22
2017-09-13T00:33:32.209Z,998.21
2017-09-13T00:33:58.350Z,998.16
2017-09-13T00:34:24.502Z,998.15
2017-09-13T00:34:50.649Z,998.11
2017-09-13T00:35:16.995Z,998.06
2017-09-13T00:35:43.137Z,998.08
2017-09-13T00:36:09.290Z,998.07
2017-09-13T00:36:35.432Z,998.07
2017-09-13T00:37:01.595Z,998.07
2017-09-13T00:37:27.737Z,998.08
2017-09-13T00:37:53.888Z,998.08
2017-09-13T00:38:20.054Z,998.09
2017-09-13T00:38:46.220Z,998.12
2017-09-13T00:39:12.373Z,998.15
2017-09-13T00:39:38.515Z,998.12
2017-09-13T00:40:04.655Z,998.12
2017-09-13T00:40:30.859Z,998.08
2017-09-13T00:40:57.003Z,998.14
2017-09-13T00:41:23.149Z,998.1
2017-09-13T00:41:49.292Z,998.11
2017-09-13T00:42:15.453Z,998.12
2017-09-13T00:42:41.634Z,998.13
2017-09-13T00:43:07.786Z,998.08
2017-09-13T00:43:33.938Z,998.06
2017-09-13T00:44:00.087Z,998.01
2017-09-13T00:44:26.264Z,998.01
2017-09-13T00:44:52.405Z,997.95
2017-09-13T00:45:18.553Z,997.96
2017-09-13T00:45:44.707Z,997.98
2017-09-13T00:46:10.851Z,997.92
2017-09-13T00:46:36.996Z,997.92
2017-09-13T00:47:03.145Z,997.85
2017-09-13T00:47:29.288Z,997.82
2017-09-13T00:47:55.433Z,997.85
2017-09-13T00:48:21.577Z,997.83
2017-09-13T00:48:47.714Z,997.84
2017-09-13T00:49:13.841Z,997.91
2017-09-13T00:49:39.980Z,997.86
2017-09-13T00:50:06.110Z,997.79
2017-09-13T00:50:32.234Z,997.83
2017-09-13T00:50:58.351Z,997.75
2017-09-13T00:51:24.472Z,997.7
2017-09-13T00:51:50.598Z,997.74
2017-09-13T00:52:16.738Z,997.68
2017-09-13T00:52:42.866Z,997.67
2017-09-13T00:53:08.985Z,997.66
2017-09-13T00:53:35.114Z,997.61
2017-09-13T00:54:01.234Z,997.68
2017-09-13T00:54:27.359Z,997.75
2017-09-13T00:54:53.476Z,997.64
2017-09-13T00:55:19.599Z,997.62
2017-09-13T00:55:45.727Z,997.62
2017-09-13T00:56:11.848Z,997.61
2017-09-13T00:56:37.978Z,997.5
2017-09-13T00:57:04.095Z,997.54
2017-09-13T00:57:30.216Z,997.56
2017-09-13T00:57:56.340Z,997.59
2017-09-13T00:58:22.473Z,997.49
2017-09-13T00:58:48.602Z,997.53
2017-09-13T00:59:14.720Z,997.47
2017-09-13T00:59:40.850Z,997.47
2017-09-13T01:00:06.970Z,997.44
2017-09-13T01:00:33.124Z,997.41
2017-09-13T01:00:59.259Z,997.41
2017-09-13T01:01:25.374Z,997.4
2017-09-13T01:01:51.501Z,997.41
2017-09-13T01:02:17.622Z,997.33
2017-09-13T01:02:43.750Z,997.39
2017-09-13T01:03:09.867Z,997.36
2017-09-13T01:03:36.005Z,997.31
2017-09-13T01:04:02.161Z,997.34
2017-09-13T01:04:28.294Z,997.29
2017-09-13T01:04:54.419Z,997.32
2017-09-13T01:05:20.548Z,997.28
2017-09-13T01:05:46.673Z,997.22
2017-09-13T01:06:12.794Z,997.25
2017-09-13T01:06:38.912Z,997.24
2017-09-13T01:07:05.034Z,997.27
2017-09-13T01:07:31.163Z,997.22
2017-09-13T01:07:57.291Z,997.23
2017-09-13T01:08:23.415Z,997.21
2017-09-13T01:08:49.537Z,997.19
2017-09-13T01:09:15.663Z,997.13
2017-09-13T01:09:41.786Z,997.17
2017-09-13T01:10:07.903Z,997.15
2017-09-13T01:10:34.032Z,997.12
2017-09-13T01:11:00.161Z,997.08
2017-09-13T01:11:26.294Z,997.11
2017-09-13T01:11:52.414Z,997.03
2017-09-13T01:12:18.537Z,997.05
2017-09-13T01:12:44.664Z,997.09
2017-09-13T01:13:10.796Z,997.03
2017-09-13T01:13:36.941Z,996.99
2017-09-13T01:14:03.060Z,996.95
2017-09-13T01:14:29.185Z,996.98
2017-09-13T01:14:55.310Z,996.93
2017-09-13T01:15:21.427Z,996.9
2017-09-13T01:15:47.554Z,996.91
2017-09-13T01:16:13.672Z,996.9
2017-09-13T01:16:39.799Z,996.86
2017-09-13T01:17:05.917Z,996.87
2017-09-13T01:17:32.037Z,996.75
2017-09-13T01:17:58.167Z,996.81
2017-09-13T01:18:24.285Z,996.69
2017-09-13T01:18:50.414Z,996.68
2017-09-13T01:19:16.533Z,996.66
2017-09-13T01:19:42.656Z,996.7
2017-09-13T01:20:08.784Z,996.63
2017-09-13T01:20:34.903Z,996.62
2017-09-13T01:21:01.026Z,996.65
2017-09-13T01:21:27.154Z,996.65
2017-09-13T01:21:53.280Z,996.65
2017-09-13T01:22:19.404Z,996.62
2017-09-13T01:22:45.546Z,996.57
2017-09-13T01:23:11.675Z,996.64
2017-09-13T01:23:37.802Z,996.59
2017-09-13T01:24:03.921Z,996.58
2017-09-13T01:24:30.050Z,996.69
2017-09-13T01:24:56.165Z,996.64
2017-09-13T01:25:22.312Z,996.72
2017-09-13T01:25:48.434Z,996.7
2017-09-13T01:26:14.554Z,996.76
2017-09-13T01:26:40.675Z,996.74
2017-09-13T01:27:06.800Z,996.75
2017-09-13T01:27:32.917Z,996.74
2017-09-13T01:27:59.036Z,996.74
2017-09-13T01:28:25.157Z,996.8
2017-09-13T01:28:51.275Z,996.81
2017-09-13T01:29:17.401Z,996.81
2017-09-13T01:29:43.526Z,996.85
2017-09-13T01:30:09.646Z,996.83
2017-09-13T01:30:35.768Z,996.77
2017-09-13T01:31:01.896Z,996.85
2017-09-13T01:31:28.017Z,996.86
2017-09-13T01:31:54.167Z,996.8
2017-09-13T01:32:20.287Z,996.79
2017-09-13T01:32:46.414Z,996.76
2017-09-13T01:33:12.532Z,996.78
2017-09-13T01:33:38.655Z,996.81
2017-09-13T01:34:04.780Z,996.86
2017-09-13T01:34:30.898Z,996.74
2017-09-13T01:34:57.020Z,996.76
2017-09-13T01:35:23.170Z,996.75
2017-09-13T01:35:49.288Z,996.82
2017-09-13T01:36:15.412Z,996.77
2017-09-13T01:36:41.534Z,996.77
2017-09-13T01:37:07.661Z,996.95
2017-09-13T01:37:33.779Z,996.77
2017-09-13T01:37:59.906Z,996.68
2017-09-13T01:38:26.024Z,996.65
2017-09-13T01:38:52.155Z,996.67
2017-09-13T01:39:18.292Z,996.67
2017-09-13T01:39:44.416Z,996.7
2017-09-13T01:40:10.546Z,996.68
2017-09-13T01:40:36.664Z,996.69
2017-09-13T01:41:02.783Z,996.71
2017-09-13T01:41:28.911Z,996.72
2017-09-13T01:41:55.036Z,996.74
2017-09-13T01:42:21.154Z,996.79
2017-09-13T01:42:47.286Z,996.79
2017-09-13T01:43:13.404Z,996.77
2017-09-13T01:43:39.525Z,996.77
2017-09-13T01:44:05.650Z,996.74
2017-09-13T01:44:31.771Z,996.8
2017-09-13T01:44:57.898Z,996.79
2017-09-13T01:45:24.016Z,996.76
2017-09-13T01:45:50.143Z,996.79
2017-09-13T01:46:16.254Z,996.74
2017-09-13T01:46:42.380Z,996.74
2017-09-13T01:47:08.501Z,996.69
2017-09-13T01:47:34.628Z,996.66
2017-09-13T01:48:00.749Z,996.66
2017-09-13T01:48:26.874Z,996.65
2017-09-13T01:48:52.998Z,996.69
2017-09-13T01:49:19.116Z,996.59
2017-09-13T01:49:45.239Z,996.59
2017-09-13T01:50:11.366Z,996.64
2017-09-13T01:50:37.483Z,996.59
2017-09-13T01:51:03.609Z,996.5
2017-09-13T01:51:29.753Z,996.65
2017-09-13T01:51:55.880Z,996.52
2017-09-13T01:52:22.002Z,996.5
2017-09-13T01:52:48.121Z,996.5
2017-09-13T01:53:14.243Z,996.48
2017-09-13T01:53:40.369Z,996.46
2017-09-13T01:54:06.521Z,996.43
2017-09-13T01:54:32.634Z,996.43
2017-09-13T01:54:58.758Z,996.41
2017-09-13T01:55:24.905Z,996.47
2017-09-13T01:55:51.022Z,996.31
2017-09-13T01:56:17.158Z,996.3
2017-09-13T01:56:43.285Z,996.27
2017-09-13T01:57:09.407Z,996.28
2017-09-13T01:57:35.529Z,996.3
2017-09-13T01:58:01.652Z,996.19
2017-09-13T01:58:27.769Z,996.19
2017-09-13T01:58:53.891Z,996.17
2017-09-13T01:59:20.025Z,996.24
2017-09-13T01:59:46.142Z,996.09
2017-09-13T02:00:12.265Z,996.13
2017-09-13T02:00:38.379Z,996.11
2017-09-13T02:01:04.506Z,996.15
2017-09-13T02:01:30.633Z,996.11
2017-09-13T02:01:56.752Z,996.08
2017-09-13T02:02:22.880Z,996.06
2017-09-13T02:02:48.993Z,996.01
2017-09-13T02:03:15.125Z,996
2017-09-13T02:03:41.242Z,995.96
2017-09-13T02:04:07.366Z,996.01
2017-09-13T02:04:33.494Z,995.95
2017-09-13T02:04:59.618Z,995.96
2017-09-13T02:05:25.736Z,995.89
2017-09-13T02:05:51.856Z,995.84
2017-09-13T02:06:17.983Z,995.79
2017-09-13T02:06:44.099Z,995.77
2017-09-13T02:07:10.219Z,995.78
2017-09-13T02:07:36.366Z,995.7
2017-09-13T02:08:02.493Z,995.71
2017-09-13T02:08:28.612Z,995.58
2017-09-13T02:08:54.731Z,995.59
2017-09-13T02:09:20.860Z,995.62
2017-09-13T02:09:46.981Z,995.61
2017-09-13T02:10:13.107Z,995.64
2017-09-13T02:10:39.224Z,995.62
2017-09-13T02:11:05.350Z,995.58
2017-09-13T02:11:31.474Z,995.61
2017-09-13T02:11:57.596Z,995.53
2017-09-13T02:12:23.715Z,995.48
2017-09-13T02:12:49.844Z,995.48
2017-09-13T02:13:15.968Z,995.45
2017-09-13T02:13:42.105Z,995.37
2017-09-13T02:14:08.235Z,995.41
2017-09-13T02:14:34.354Z,995.37
2017-09-13T02:15:00.479Z,995.39
2017-09-13T02:15:26.600Z,995.44
2017-09-13T02:15:52.718Z,995.38
2017-09-13T02:16:18.847Z,995.41
2017-09-13T02:16:44.969Z,995.44
2017-09-13T02:17:11.088Z,995.47
2017-09-13T02:17:37.207Z,995.5
2017-09-13T02:18:03.328Z,995.52
2017-09-13T02:18:29.455Z,995.54
2017-09-13T02:18:55.582Z,995.51
2017-09-13T02:19:21.700Z,995.39
2017-09-13T02:19:47.819Z,995.39
2017-09-13T02:20:13.949Z,995.38
2017-09-13T02:20:40.083Z,995.4
2017-09-13T02:21:06.207Z,995.26
2017-09-13T02:21:32.337Z,995.25
2017-09-13T02:21:58.461Z,995.3
2017-09-13T02:22:24.580Z,995.19
2017-09-13T02:22:50.710Z,995.13
2017-09-13T02:23:16.829Z,995.21
2017-09-13T02:23:42.949Z,995.13
2017-09-13T02:24:09.075Z,995.28
2017-09-13T02:24:35.194Z,995.18
2017-09-13T02:25:01.323Z,995.15
2017-09-13T02:25:27.436Z,995.15
2017-09-13T02:25:53.559Z,995.15
2017-09-13T02:26:19.682Z,995.14
2017-09-13T02:26:45.805Z,995.12
2017-09-13T02:27:11.933Z,995.07
2017-09-13T02:27:38.051Z,995.12
2017-09-13T02:28:04.176Z,995.07
2017-09-13T02:28:30.300Z,995.11
2017-09-13T02:28:56.417Z,995.11
2017-09-13T02:29:22.539Z,995.15
2017-09-13T02:29:48.661Z,995.05
2017-09-13T02:30:14.790Z,995.09
2017-09-13T02:30:40.907Z,995.13
2017-09-13T02:31:07.033Z,995.06
2017-09-13T02:31:33.150Z,995.04
2017-09-13T02:31:59.276Z,995.04
2017-09-13T02:32:25.397Z,994.99
2017-09-13T02:32:51.524Z,994.97
2017-09-13T02:33:17.647Z,994.93
2017-09-13T02:33:43.793Z,994.89
2017-09-13T02:34:09.917Z,994.82
2017-09-13T02:34:36.039Z,994.83
2017-09-13T02:35:02.156Z,994.84
2017-09-13T02:35:28.285Z,994.76
2017-09-13T02:35:54.408Z,994.78
2017-09-13T02:36:20.525Z,994.73
2017-09-13T02:36:46.647Z,994.74
2017-09-13T02:37:12.775Z,994.8
2017-09-13T02:37:38.898Z,994.8
2017-09-13T02:38:05.015Z,994.77
2017-09-13T02:38:31.143Z,994.71
2017-09-13T02:38:57.265Z,994.7
2017-09-13T02:39:23.407Z,994.68
2017-09-13T02:39:49.532Z,994.7
2017-09-13T02:40:15.653Z,994.69
2017-09-13T02:40:41.780Z,994.62
2017-09-13T02:41:07.904Z,994.59
2017-09-13T02:41:34.018Z,994.59
2017-09-13T02:42:00.146Z,994.56
2017-09-13T02:42:26.261Z,994.52
2017-09-13T02:42:52.390Z,994.52
2017-09-13T02:43:18.513Z,994.54
2017-09-13T02:43:44.630Z,994.49
2017-09-13T02:44:10.747Z,994.44
2017-09-13T02:44:36.876Z,994.38
2017-09-13T02:45:02.993Z,994.32
2017-09-13T02:45:29.126Z,994.3
2017-09-13T02:45:55.248Z,994.23
2017-09-13T02:46:21.377Z,994.27
2017-09-13T02:46:47.502Z,994.18
2017-09-13T02:47:13.614Z,994.18
2017-09-13T02:47:39.743Z,994.18
2017-09-13T02:48:05.859Z,994.09
2017-09-13T02:48:31.991Z,994.07
2017-09-13T02:48:58.112Z,994.16
2017-09-13T02:49:24.234Z,994.07
2017-09-13T02:49:50.352Z,994.02
2017-09-13T02:50:16.493Z,994.05
2017-09-13T02:50:42.610Z,994.03
2017-09-13T02:51:08.736Z,994.04
2017-09-13T02:51:34.860Z,994
2017-09-13T02:52:00.980Z,994.04
2017-09-13T02:52:27.107Z,994.06
2017-09-13T02:52:53.224Z,994.08
2017-09-13T02:53:19.352Z,994.08
2017-09-13T02:53:45.473Z,993.98
2017-09-13T02:54:11.590Z,994.04
2017-09-13T02:54:37.719Z,994.03
2017-09-13T02:55:03.861Z,994.06
2017-09-13T02:55:30.000Z,993.98
2017-09-13T02:55:56.122Z,993.95
2017-09-13T02:56:22.248Z,993.99
2017-09-13T02:56:48.373Z,993.94
2017-09-13T02:57:14.494Z,994.01
2017-09-13T02:57:40.616Z,993.93
2017-09-13T02:58:06.733Z,993.93
2017-09-13T02:58:32.859Z,993.92
2017-09-13T02:58:58.977Z,993.88
2017-09-13T02:59:25.100Z,993.89
2017-09-13T02:59:51.226Z,993.85
2017-09-13T03:00:17.393Z,993.87
2017-09-13T03:00:43.511Z,993.86
2017-09-13T03:01:09.631Z,993.82
2017-09-13T03:01:35.758Z,993.8
2017-09-13T03:02:01.884Z,993.71
2017-09-13T03:02:28.003Z,993.74
2017-09-13T03:02:54.121Z,993.8
2017-09-13T03:03:20.250Z,993.72
2017-09-13T03:03:46.361Z,993.7
2017-09-13T03:04:12.490Z,993.78
2017-09-13T03:04:38.615Z,993.69
2017-09-13T03:05:04.737Z,993.86
2017-09-13T03:05:30.863Z,993.84
2017-09-13T03:05:56.978Z,993.83
2017-09-13T03:06:23.102Z,993.79
2017-09-13T03:06:49.226Z,993.73
2017-09-13T03:07:15.353Z,993.65
2017-09-13T03:07:41.475Z,993.57
2017-09-13T03:08:07.595Z,993.6
2017-09-13T03:08:33.711Z,993.55
2017-09-13T03:08:59.853Z,993.57
2017-09-13T03:09:25.974Z,993.54
2017-09-13T03:09:52.115Z,993.51
2017-09-13T03:10:18.246Z,993.54
2017-09-13T03:10:44.373Z,993.58
2017-09-13T03:11:10.494Z,993.53
2017-09-13T03:11:36.612Z,993.52
2017-09-13T03:12:02.737Z,993.51
2017-09-13T03:12:28.867Z,993.51
2017-09-13T03:12:54.985Z,993.44
2017-09-13T03:13:21.105Z,993.45
2017-09-13T03:13:47.231Z,993.49
2017-09-13T03:14:13.354Z,993.47
2017-09-13T03:14:39.472Z,993.45
2017-09-13T03:15:05.593Z,993.43
2017-09-13T03:15:31.718Z,993.4
2017-09-13T03:15:57.841Z,993.34
2017-09-13T03:16:23.958Z,993.4
2017-09-13T03:16:50.085Z,993.4
2017-09-13T03:17:16.203Z,993.32
2017-09-13T03:17:42.323Z,993.28
2017-09-13T03:18:08.447Z,993.29
2017-09-13T03:18:34.568Z,993.26
2017-09-13T03:19:00.695Z,993.25
2017-09-13T03:19:26.819Z,993.23
2017-09-13T03:19:52.938Z,993.21
2017-09-13T03:20:19.058Z,993.21
2017-09-13T03:20:45.184Z,993.19
2017-09-13T03:21:11.302Z,993.2
2017-09-13T03:21:37.425Z,993.18
2017-09-13T03:22:03.554Z,993.13
2017-09-13T03:22:29.672Z,993.12
2017-09-13T03:22:55.820Z,993.09
2017-09-13T03:23:21.939Z,993.04
2017-09-13T03:23:48.057Z,993.07
2017-09-13T03:24:14.201Z,992.98
2017-09-13T03:24:40.336Z,993
2017-09-13T03:25:06.458Z,993.15
2017-09-13T03:25:32.574Z,993.08
2017-09-13T03:25:58.688Z,992.97
2017-09-13T03:26:24.809Z,992.95
2017-09-13T03:26:50.940Z,992.88
2017-09-13T03:27:17.086Z,992.86
2017-09-13T03:27:43.204Z,993.02
2017-09-13T03:28:09.330Z,992.94
2017-09-13T03:28:35.444Z,992.89
2017-09-13T03:29:01.574Z,992.84
2017-09-13T03:29:27.690Z,992.85
2017-09-13T03:29:53.840Z,992.89
2017-09-13T03:30:19.981Z,992.78
2017-09-13T03:30:46.113Z,992.77
2017-09-13T03:31:12.245Z,992.73
2017-09-13T03:31:38.380Z,992.78
2017-09-13T03:32:04.502Z,992.74
2017-09-13T03:32:30.621Z,992.69
2017-09-13T03:32:56.743Z,992.79
2017-09-13T03:33:22.869Z,992.64
2017-09-13T03:33:48.979Z,992.71
2017-09-13T03:34:15.104Z,992.65
2017-09-13T03:34:41.228Z,992.71
2017-09-13T03:35:07.350Z,992.58
2017-09-13T03:35:33.473Z,992.62
2017-09-13T03:35:59.598Z,992.6
2017-09-13T03:36:25.715Z,992.47
2017-09-13T03:36:51.843Z,992.62
2017-09-13T03:37:17.979Z,992.57
2017-09-13T03:37:44.097Z,992.56
2017-09-13T03:38:10.226Z,992.5
2017-09-13T03:38:36.373Z,992.45
2017-09-13T03:39:02.490Z,992.48
2017-09-13T03:39:28.609Z,992.47
2017-09-13T03:39:54.738Z,992.5
2017-09-13T03:40:20.854Z,992.47
2017-09-13T03:40:46.982Z,992.48
2017-09-13T03:41:13.099Z,992.45
2017-09-13T03:41:39.223Z,992.38
2017-09-13T03:42:05.355Z,992.36
2017-09-13T03:42:31.493Z,992.37
2017-09-13T03:42:57.611Z,992.3
2017-09-13T03:43:23.740Z,992.39
2017-09-13T03:43:49.860Z,992.35
2017-09-13T03:44:15.986Z,992.41
2017-09-13T03:44:42.102Z,992.37
2017-09-13T03:45:08.226Z,992.35
2017-09-13T03:45:34.355Z,992.24
2017-09-13T03:46:00.476Z,992.32
2017-09-13T03:46:26.595Z,992.32
2017-09-13T03:46:52.712Z,992.22
2017-09-13T03:47:18.837Z,992.29
2017-09-13T03:47:44.955Z,992.24
2017-09-13T03:48:11.080Z,992.16
2017-09-13T03:48:37.202Z,992.23
2017-09-13T03:49:03.319Z,992.26
2017-09-13T03:49:29.443Z,992.22
2017-09-13T03:49:55.571Z,992.23
2017-09-13T03:50:21.688Z,992.12
2017-09-13T03:50:47.813Z,992.1
2017-09-13T03:51:13.942Z,992.1
2017-09-13T03:51:40.059Z,992.17
2017-09-13T03:52:06.185Z,992.09
2017-09-13T03:52:32.308Z,992.1
2017-09-13T03:52:58.425Z,992.12
2017-09-13T03:53:24.574Z,992.12
2017-09-13T03:53:50.694Z,991.98
2017-09-13T03:54:16.811Z,992.09
2017-09-13T03:54:42.941Z,991.98
2017-09-13T03:55:09.064Z,992
2017-09-13T03:55:35.187Z,991.94
2017-09-13T03:56:01.308Z,991.95
2017-09-13T03:56:27.429Z,991.88
2017-09-13T03:56:53.548Z,991.9
2017-09-13T03:57:19.677Z,991.9
2017-09-13T03:57:45.800Z,991.87
2017-09-13T03:58:11.916Z,991.93
2017-09-13T03:58:38.037Z,991.83
2017-09-13T03:59:04.165Z,992.09
2017-09-13T03:59:30.282Z,991.86
2017-09-13T03:59:56.408Z,991.9
2017-09-13T04:00:22.556Z,991.8
2017-09-13T04:00:48.674Z,991.8
2017-09-13T04:01:14.802Z,991.74
2017-09-13T04:01:40.918Z,991.71
2017-09-13T04:02:07.039Z,991.72
2017-09-13T04:02:33.162Z,991.71
2017-09-13T04:02:59.283Z,991.7
2017-09-13T04:03:25.407Z,991.69
2017-09-13T04:03:51.528Z,991.71
2017-09-13T04:04:17.655Z,991.68
2017-09-13T04:04:43.772Z,991.69
2017-09-13T04:05:09.903Z,991.67
2017-09-13T04:05:36.041Z,991.67
2017-09-13T04:06:02.165Z,991.61
2017-09-13T04:06:28.292Z,991.64
2017-09-13T04:06:54.408Z,991.67
2017-09-13T04:07:20.529Z,991.63
2017-09-13T04:07:46.657Z,991.63
2017-09-13T04:08:12.781Z,991.62
2017-09-13T04:08:38.898Z,991.52
2017-09-13T04:09:05.025Z,991.59
2017-09-13T04:09:31.142Z,991.56
2017-09-13T04:09:57.271Z,991.59
2017-09-13T04:10:23.398Z,991.52
2017-09-13T04:10:49.516Z,991.58
2017-09-13T04:11:15.636Z,991.5
2017-09-13T04:11:41.759Z,991.48
2017-09-13T04:12:07.877Z,991.47
2017-09-13T04:12:34.003Z,991.52
2017-09-13T04:13:00.124Z,991.38
2017-09-13T04:13:26.243Z,991.51
2017-09-13T04:13:52.370Z,991.51
2017-09-13T04:14:18.495Z,991.45
2017-09-13T04:14:44.614Z,991.54
2017-09-13T04:15:10.732Z,991.47
2017-09-13T04:15:36.863Z,991.53
2017-09-13T04:16:02.979Z,991.48
2017-09-13T04:16:29.128Z,991.46
2017-09-13T04:16:55.257Z,991.4
2017-09-13T04:17:21.377Z,991.55
2017-09-13T04:17:47.497Z,991.37
2017-09-13T04:18:13.617Z,991.41
2017-09-13T04:18:39.736Z,991.42
2017-09-13T04:19:05.865Z,991.33
2017-09-13T04:19:32.005Z,991.3
2017-09-13T04:19:58.126Z,991.32
2017-09-13T04:20:24.257Z,991.45
2017-09-13T04:20:50.375Z,991.28
2017-09-13T04:21:16.496Z,991.3
2017-09-13T04:21:42.622Z,991.33
2017-09-13T04:22:08.746Z,991.23
2017-09-13T04:22:34.865Z,991.27
2017-09-13T04:23:01.002Z,991.11
2017-09-13T04:23:27.151Z,991.23
2017-09-13T04:23:53.253Z,991.19
2017-09-13T04:24:19.375Z,991.2
2017-09-13T04:24:45.491Z,991.18
2017-09-13T04:25:11.617Z,991.24
2017-09-13T04:25:37.742Z,991.17
2017-09-13T04:26:03.859Z,991.26
2017-09-13T04:26:29.983Z,991.18
2017-09-13T04:26:56.110Z,991.1
2017-09-13T04:27:22.232Z,991.09
2017-09-13T04:27:48.353Z,991.25
2017-09-13T04:28:14.471Z,991.11
2017-09-13T04:28:40.617Z,991.14
2017-09-13T04:29:06.732Z,991.12
2017-09-13T04:29:32.861Z,991.16
2017-09-13T04:29:58.979Z,991.24
2017-09-13T04:30:25.104Z,991.07
2017-09-13T04:30:51.229Z,991.07
2017-09-13T04:31:17.369Z,990.99
2017-09-13T04:31:43.490Z,990.98
2017-09-13T04:32:09.609Z,990.97
2017-09-13T04:32:35.727Z,990.99
2017-09-13T04:33:01.855Z,991.14
2017-09-13T04:33:27.974Z,990.93
2017-09-13T04:33:54.103Z,990.89
2017-09-13T04:34:20.216Z,990.89
2017-09-13T04:34:46.341Z,990.87
2017-09-13T04:35:12.462Z,990.87
2017-09-13T04:35:38.589Z,990.91
2017-09-13T04:36:04.714Z,990.84
2017-09-13T04:36:30.847Z,990.82
2017-09-13T04:36:56.972Z,990.83
2017-09-13T04:37:23.090Z,990.81
2017-09-13T04:37:49.210Z,990.74
2017-09-13T04:38:15.333Z,990.77
2017-09-13T04:38:41.458Z,990.86
2017-09-13T04:39:07.601Z,990.76
2017-09-13T04:39:33.716Z,990.74
2017-09-13T04:39:59.843Z,990.73
2017-09-13T04:40:25.984Z,990.82
2017-09-13T04:40:52.116Z,990.77
2017-09-13T04:41:18.253Z,990.71
2017-09-13T04:41:44.373Z,990.74
2017-09-13T04:42:10.497Z,990.62
2017-09-13T04:42:36.626Z,990.82
2017-09-13T04:43:02.752Z,990.76
2017-09-13T04:43:28.869Z,990.68
2017-09-13T04:43:54.992Z,990.64
2017-09-13T04:44:21.115Z,990.62
2017-09-13T04:44:47.237Z,990.66
2017-09-13T04:45:13.360Z,990.63
2017-09-13T04:45:39.488Z,990.59
2017-09-13T04:46:05.605Z,990.57
2017-09-13T04:46:31.723Z,990.55
2017-09-13T04:46:57.848Z,990.4
2017-09-13T04:47:23.965Z,990.67
2017-09-13T04:47:50.090Z,990.51
2017-09-13T04:48:16.232Z,990.69
2017-09-13T04:48:42.356Z,990.52
2017-09-13T04:49:08.478Z,990.42
2017-09-13T04:49:34.605Z,990.53
2017-09-13T04:50:00.727Z,990.47
2017-09-13T04:50:26.853Z,990.49
2017-09-13T04:50:52.972Z,990.49
2017-09-13T04:51:19.107Z,990.44
2017-09-13T04:51:45.235Z,990.38
2017-09-13T04:52:11.359Z,990.45
2017-09-13T04:52:37.479Z,990.37
2017-09-13T04:53:03.607Z,990.43
2017-09-13T04:53:29.732Z,990.31
2017-09-13T04:53:55.851Z,990.33
2017-09-13T04:54:21.968Z,990.39
2017-09-13T04:54:48.094Z,990.38
2017-09-13T04:55:14.219Z,990.63
2017-09-13T04:55:40.342Z,990.3
2017-09-13T04:56:06.459Z,990.41
2017-09-13T04:56:32.584Z,990.37
2017-09-13T04:56:58.699Z,990.34
2017-09-13T04:57:24.825Z,990.53
2017-09-13T04:57:50.945Z,990.31
2017-09-13T04:58:17.068Z,990.28
2017-09-13T04:58:43.195Z,990.27
2017-09-13T04:59:09.312Z,990.34
2017-09-13T04:59:35.434Z,990.3
2017-09-13T05:00:01.563Z,990.4
2017-09-13T05:00:27.679Z,990.27
2017-09-13T05:00:53.805Z,990.3
2017-09-13T05:01:19.929Z,990.28
2017-09-13T05:01:46.048Z,990.28
2017-09-13T05:02:12.166Z,990.29
2017-09-13T05:02:38.293Z,990.31
2017-09-13T05:03:04.418Z,990.45
2017-09-13T05:03:30.535Z,990.38
2017-09-13T05:03:56.661Z,990.37
2017-09-13T05:04:22.779Z,990.33
2017-09-13T05:04:48.897Z,990.41
2017-09-13T05:05:15.020Z,990.33
2017-09-13T05:05:41.147Z,990.57
2017-09-13T05:06:07.270Z,990.31
2017-09-13T05:06:33.390Z,990.26
2017-09-13T05:06:59.517Z,990.27
2017-09-13T05:07:25.645Z,990.2
2017-09-13T05:07:51.760Z,990.33
2017-09-13T05:08:17.882Z,990.29
2017-09-13T05:08:44.003Z,990.34
2017-09-13T05:09:10.132Z,990.21
2017-09-13T05:09:36.254Z,990.19
2017-09-13T05:10:02.378Z,990.22
2017-09-13T05:10:28.499Z,990.31
2017-09-13T05:10:54.624Z,990.17
2017-09-13T05:11:20.759Z,990.3
2017-09-13T05:11:46.857Z,990.23
2017-09-13T05:12:12.981Z,990.36
2017-09-13T05:12:39.101Z,990.42
2017-09-13T05:13:05.233Z,990.45
2017-09-13T05:13:31.350Z,990.3
2017-09-13T05:13:57.477Z,990.32
2017-09-13T05:14:23.600Z,990.44
2017-09-13T05:14:49.724Z,990.37
2017-09-13T05:15:15.849Z,990.27
2017-09-13T05:15:41.971Z,990.28
2017-09-13T05:16:08.090Z,990.15
2017-09-13T05:16:34.217Z,990.36
2017-09-13T05:17:00.339Z,990.21
2017-09-13T05:17:26.456Z,990.25
2017-09-13T05:17:52.583Z,990.28
2017-09-13T05:18:18.702Z,990.3
2017-09-13T05:18:44.822Z,990.29
2017-09-13T05:19:10.950Z,990.34
2017-09-13T05:19:37.075Z,990.23
2017-09-13T05:20:03.196Z,990.21
2017-09-13T05:20:29.321Z,990.55
2017-09-13T05:20:55.439Z,990.12
2017-09-13T05:21:21.566Z,990.26
2017-09-13T05:21:47.681Z,990.13
2017-09-13T05:22:13.800Z,990.17
2017-09-13T05:22:39.929Z,990.29
2017-09-13T05:23:06.054Z,990.16
2017-09-13T05:23:32.173Z,990.12
2017-09-13T05:23:58.301Z,990.17
2017-09-13T05:24:24.437Z,990.18
2017-09-13T05:24:50.567Z,990.11
2017-09-13T05:25:16.683Z,990.02
2017-09-13T05:25:42.809Z,990.1
2017-09-13T05:26:08.925Z,990.04
2017-09-13T05:26:35.046Z,989.98
2017-09-13T05:27:01.172Z,990.02